createdAt,value
2022-10-01T00:02:13.346Z,12.32
2022-10-01T00:04:45.664Z,12.24
2022-10-01T00:07:15.497Z,12.31
2022-10-01T00:09:45.264Z,12.41
2022-10-01T00:12:16.890Z,12.35
2022-10-01T00:14:46.605Z,12.18
2022-10-01T00:17:16.422Z,12.42
2022-10-01T00:19:48.699Z,12.49
2022-10-01T00:22:19.065Z,12.30
2022-10-01T00:24:49.472Z,12.06
2022-10-01T00:27:19.346Z,12.29
2022-10-01T00:29:49.256Z,12.32
2022-10-01T00:32:18.988Z,12.38
2022-10-01T00:34:52.132Z,12.51
2022-10-01T00:37:22.294Z,12.53
2022-10-01T00:39:51.980Z,12.54
2022-10-01T00:42:25.525Z,12.47
2022-10-01T00:44:56.492Z,12.53
2022-10-01T00:47:31.784Z,12.47
2022-10-01T00:50:11.874Z,12.51
2022-10-01T00:52:43.976Z,12.32
2022-10-01T00:55:18.842Z,12.37
2022-10-01T00:57:48.879Z,12.22
2022-10-01T01:00:19.294Z,12.39
2022-10-01T01:02:49.428Z,12.39
2022-10-01T01:05:22.187Z,12.47
2022-10-01T01:07:55.492Z,12.15
2022-10-01T01:10:32.676Z,12.53
2022-10-01T01:13:15.568Z,12.50
2022-10-01T01:15:53.891Z,12.37
2022-10-01T01:18:30.196Z,12.50
2022-10-01T01:21:17.890Z,12.23
2022-10-01T01:24:23.219Z,12.42
2022-10-01T01:27:10.030Z,12.43
2022-10-01T01:29:49.649Z,12.55
2022-10-01T01:32:25.858Z,12.56
2022-10-01T01:35:02.291Z,12.52
2022-10-01T01:37:36.708Z,12.53
2022-10-01T01:40:11.833Z,12.63
2022-10-01T01:42:45.781Z,12.58
2022-10-01T01:45:23.672Z,12.63
2022-10-01T01:47:57.629Z,12.48
2022-10-01T01:50:28.974Z,12.56
2022-10-01T01:52:59.820Z,12.52
2022-10-01T01:55:32.114Z,12.59
2022-10-01T01:58:02.145Z,12.65
2022-10-01T02:00:34.993Z,12.65
2022-10-01T02:03:04.808Z,12.60
2022-10-01T02:05:44.970Z,12.54
2022-10-01T02:08:28.814Z,12.59
2022-10-01T02:11:15.164Z,12.58
2022-10-01T02:13:52.942Z,12.51
2022-10-01T02:16:32.978Z,12.62
2022-10-01T02:19:08.295Z,12.48
2022-10-01T02:21:43.614Z,12.66
2022-10-01T02:24:22.018Z,12.72
2022-10-01T02:26:54.521Z,12.48
2022-10-01T02:29:26.560Z,12.45
2022-10-01T02:32:00.087Z,12.76
2022-10-01T02:34:33.074Z,12.63
2022-10-01T02:37:07.597Z,12.59
2022-10-01T02:39:41.513Z,12.58
2022-10-01T02:42:12.921Z,12.60
2022-10-01T02:44:46.256Z,12.64
2022-10-01T02:47:22.747Z,12.68
2022-10-01T02:49:53.388Z,12.53
2022-10-01T02:52:30.108Z,12.73
2022-10-01T02:55:02.982Z,12.58
2022-10-01T02:57:30.362Z,12.66
2022-10-01T03:00:01.810Z,12.73
2022-10-01T03:02:34.863Z,12.76
2022-10-01T03:05:05.038Z,12.63
2022-10-01T03:07:36.685Z,12.53
2022-10-01T03:10:07.503Z,12.69
2022-10-01T03:12:37.550Z,12.51
2022-10-01T03:15:07.958Z,12.41
2022-10-01T03:17:40.252Z,12.53
2022-10-01T03:20:12.082Z,12.37
2022-10-01T03:22:41.828Z,12.38
2022-10-01T03:25:12.273Z,12.20
2022-10-01T03:27:42.006Z,12.09
2022-10-01T03:30:13.133Z,12.02
2022-10-01T03:32:45.509Z,11.91
2022-10-01T03:35:15.199Z,11.87
2022-10-01T03:37:44.913Z,11.85
2022-10-01T03:40:14.604Z,11.89
2022-10-01T03:42:44.285Z,11.79
2022-10-01T03:45:14.101Z,11.83
2022-10-01T03:47:46.381Z,11.86
2022-10-01T03:50:16.205Z,11.85
2022-10-01T03:52:46.368Z,11.90
2022-10-01T03:55:16.182Z,11.90
2022-10-01T03:57:45.873Z,11.88
2022-10-01T04:00:16.313Z,11.83
2022-10-01T04:02:48.675Z,11.96
2022-10-01T04:05:18.466Z,11.85
2022-10-01T04:07:48.594Z,11.93
2022-10-01T04:10:18.487Z,11.90
2022-10-01T04:12:48.141Z,11.84
2022-10-01T04:15:18.104Z,11.53
2022-10-01T04:17:50.429Z,11.53
2022-10-01T04:20:20.511Z,11.59
2022-10-01T04:22:50.231Z,11.36
2022-10-01T04:25:19.980Z,11.53
2022-10-01T04:27:58.760Z,11.59
2022-10-01T04:30:30.122Z,11.12
2022-10-01T04:33:02.804Z,11.56
2022-10-01T04:35:32.718Z,11.30
2022-10-01T04:38:03.818Z,11.26
2022-10-01T04:40:34.189Z,11.25
2022-10-01T04:43:04.019Z,11.33
2022-10-01T04:45:34.600Z,11.26
2022-10-01T04:48:07.876Z,11.42
2022-10-01T04:50:37.540Z,11.04
2022-10-01T04:53:07.200Z,11.28
2022-10-01T04:55:36.934Z,11.19
2022-10-01T04:58:06.755Z,11.29
2022-10-01T05:00:36.574Z,11.12
2022-10-01T05:03:08.930Z,11.10
2022-10-01T05:05:39.002Z,11.02
2022-10-01T05:08:08.727Z,11.00
2022-10-01T05:10:38.426Z,10.83
2022-10-01T05:13:08.465Z,10.89
2022-10-01T05:15:39.352Z,10.88
2022-10-01T05:18:11.696Z,10.89
2022-10-01T05:20:41.408Z,10.99
2022-10-01T05:23:11.161Z,10.86
2022-10-01T05:25:40.814Z,10.89
2022-10-01T05:28:16.012Z,10.93
2022-10-01T05:30:49.682Z,10.74
2022-10-01T05:33:22.093Z,10.44
2022-10-01T05:35:52.099Z,10.82
2022-10-01T05:38:22.167Z,10.88
2022-10-01T05:40:52.288Z,10.78
2022-10-01T05:43:23.094Z,10.91
2022-10-01T05:45:52.910Z,10.89
2022-10-01T05:48:26.325Z,10.87
2022-10-01T05:50:57.228Z,10.72
2022-10-01T05:53:27.555Z,10.79
2022-10-01T05:55:57.382Z,10.86
2022-10-01T05:58:28.178Z,10.78
2022-10-01T06:00:59.480Z,10.70
2022-10-01T06:03:33.129Z,10.78
2022-10-01T06:06:05.466Z,10.84
2022-10-01T06:08:37.106Z,10.87
2022-10-01T06:11:07.574Z,10.80
2022-10-01T06:13:38.808Z,10.79
2022-10-01T06:16:09.035Z,10.55
2022-10-01T06:18:42.539Z,10.77
2022-10-01T06:21:13.004Z,10.75
2022-10-01T06:23:44.465Z,10.69
2022-10-01T06:26:14.229Z,10.70
2022-10-01T06:28:44.030Z,10.68
2022-10-01T06:31:14.849Z,10.75
2022-10-01T06:33:47.432Z,10.85
2022-10-01T06:36:18.324Z,10.87
2022-10-01T06:38:51.768Z,10.99
2022-10-01T06:41:21.506Z,10.89
2022-10-01T06:43:51.835Z,10.86
2022-10-01T06:46:22.726Z,10.86
2022-10-01T06:48:56.139Z,11.20
2022-10-01T06:51:55.128Z,11.08
2022-10-01T06:54:22.284Z,11.08
2022-10-01T06:56:53.041Z,10.90
2022-10-01T06:59:24.099Z,11.07
2022-10-01T07:01:56.358Z,11.03
2022-10-01T07:04:33.784Z,11.22
2022-10-01T07:07:03.608Z,11.20
2022-10-01T07:09:34.415Z,11.25
2022-10-01T07:12:05.230Z,11.21
2022-10-01T07:14:35.981Z,11.18
2022-10-01T07:17:05.804Z,11.17
2022-10-01T07:19:39.688Z,11.38
2022-10-01T07:22:11.049Z,11.42
2022-10-01T07:24:40.999Z,11.43
2022-10-01T07:27:11.932Z,11.29
2022-10-01T07:29:43.153Z,11.40
2022-10-01T07:32:13.105Z,11.51
2022-10-01T07:34:46.563Z,11.53
2022-10-01T07:37:16.396Z,11.58
2022-10-01T07:39:50.071Z,11.40
2022-10-01T07:42:21.551Z,11.42
2022-10-01T07:44:52.414Z,11.54
2022-10-01T07:47:22.311Z,11.52
2022-10-01T07:49:56.642Z,11.61
2022-10-01T07:52:26.552Z,11.54
2022-10-01T07:54:57.394Z,11.80
2022-10-01T07:57:29.242Z,11.92
2022-10-01T07:59:59.035Z,11.73
2022-10-01T08:02:29.959Z,11.73
2022-10-01T08:05:27.783Z,12.08
2022-10-01T08:08:01.351Z,12.11
2022-10-01T08:10:36.688Z,12.11
2022-10-01T08:13:14.484Z,12.08
2022-10-01T08:15:45.042Z,11.97
2022-10-01T08:18:16.621Z,12.25
2022-10-01T08:20:49.069Z,12.28
2022-10-01T08:23:19.917Z,12.28
2022-10-01T08:25:50.150Z,12.32
2022-10-01T08:28:20.229Z,12.41
2022-10-01T08:30:50.064Z,12.39
2022-10-01T08:33:20.972Z,12.20
2022-10-01T08:35:53.447Z,12.56
2022-10-01T08:38:25.132Z,12.59
2022-10-01T08:40:56.266Z,12.66
2022-10-01T08:43:36.475Z,12.63
2022-10-01T08:46:14.144Z,12.56
2022-10-01T08:48:57.399Z,12.61
2022-10-01T08:51:36.410Z,12.79
2022-10-01T08:54:13.076Z,12.89
2022-10-01T08:56:48.096Z,12.86
2022-10-01T08:59:42.537Z,12.89
2022-10-01T09:02:22.187Z,12.96
2022-10-01T09:05:00.325Z,12.92
2022-10-01T09:07:49.654Z,12.85
2022-10-01T09:10:30.654Z,12.89
2022-10-01T09:13:18.727Z,12.83
2022-10-01T09:15:55.244Z,13.11
2022-10-01T09:18:39.800Z,13.25
2022-10-01T09:21:20.972Z,13.11
2022-10-01T09:24:05.891Z,13.08
2022-10-01T09:26:38.155Z,13.52
2022-10-01T09:29:17.177Z,13.72
2022-10-01T09:31:52.250Z,13.86
2022-10-01T09:34:31.634Z,13.69
2022-10-01T09:37:14.765Z,13.83
2022-10-01T09:39:57.047Z,13.83
2022-10-01T09:42:30.487Z,13.80
2022-10-01T09:45:01.028Z,13.99
2022-10-01T09:47:31.780Z,13.92
2022-10-01T09:50:06.522Z,13.92
2022-10-01T09:52:39.939Z,14.06
2022-10-01T09:55:27.296Z,14.12
2022-10-01T09:58:05.984Z,14.67
2022-10-01T10:00:39.442Z,14.65
2022-10-01T10:03:13.314Z,14.83
2022-10-01T10:05:49.591Z,14.92
2022-10-01T10:08:28.419Z,14.89
2022-10-01T10:11:07.751Z,15.03
2022-10-01T10:13:42.299Z,14.86
2022-10-01T10:16:21.989Z,14.71
2022-10-01T10:18:54.122Z,14.73
2022-10-01T10:21:27.611Z,14.79
2022-10-01T10:24:00.651Z,14.80
2022-10-01T10:26:36.178Z,14.87
2022-10-01T10:29:08.777Z,14.84
2022-10-01T10:31:44.560Z,14.91
2022-10-01T10:34:19.041Z,14.95
2022-10-01T10:36:49.931Z,15.14
2022-10-01T10:39:24.507Z,15.09
2022-10-01T10:41:57.897Z,15.20
2022-10-01T10:44:32.016Z,15.31
2022-10-01T10:47:04.740Z,15.35
2022-10-01T10:49:38.132Z,15.59
2022-10-01T10:52:23.754Z,15.67
2022-10-01T10:54:55.540Z,15.69
2022-10-01T10:57:31.244Z,15.60
2022-10-01T11:00:03.346Z,15.78
2022-10-01T11:02:37.349Z,15.90
2022-10-01T11:05:20.683Z,16.01
2022-10-01T11:07:55.866Z,16.11
2022-10-01T11:10:36.621Z,15.99
2022-10-01T11:13:26.750Z,16.16
2022-10-01T11:16:20.554Z,16.11
2022-10-01T11:19:07.815Z,16.20
2022-10-01T11:21:53.698Z,16.34
2022-10-01T11:24:43.601Z,16.64
2022-10-01T11:27:24.409Z,16.86
2022-10-01T11:30:04.555Z,16.74
2022-10-01T11:32:41.781Z,17.01
2022-10-01T11:35:29.590Z,16.76
2022-10-01T11:38:22.326Z,16.91
2022-10-01T12:48:10.796Z,17.93
2022-10-01T12:50:52.634Z,17.78
2022-10-01T12:53:34.457Z,17.87
2022-10-01T12:56:21.640Z,17.92
2022-10-01T12:59:14.678Z,18.02
2022-10-01T13:01:56.723Z,18.05
2022-10-01T13:04:40.426Z,18.03
2022-10-01T13:07:36.552Z,18.10
2022-10-01T13:10:23.215Z,18.02
2022-10-01T13:13:06.400Z,18.19
2022-10-01T13:15:40.883Z,18.22
2022-10-01T13:18:29.300Z,18.32
2022-10-01T13:21:08.395Z,18.32
2022-10-01T13:23:50.621Z,18.30
2022-10-01T13:26:29.277Z,18.17
2022-10-01T13:29:11.778Z,18.01
2022-10-01T13:31:56.839Z,17.97
2022-10-01T13:34:39.263Z,16.92
2022-10-01T13:37:16.685Z,15.58
2022-10-01T13:39:49.996Z,14.11
2022-10-01T13:42:27.534Z,14.56
2022-10-01T13:45:00.927Z,14.36
2022-10-01T13:47:30.833Z,14.08
2022-10-01T13:50:06.517Z,14.22
2022-10-01T13:52:37.851Z,14.19
2022-10-01T13:55:28.757Z,13.94
2022-10-01T13:58:06.559Z,14.22
2022-10-01T14:00:37.869Z,14.21
2022-10-01T14:03:29.613Z,14.31
2022-10-01T14:06:01.516Z,13.93
2022-10-01T14:08:37.250Z,13.93
2022-10-01T14:11:26.530Z,14.11
2022-10-01T14:14:11.610Z,14.12
2022-10-01T14:16:45.166Z,14.35
2022-10-01T14:19:22.278Z,14.35
2022-10-01T14:22:12.897Z,14.62
2022-10-01T14:24:57.737Z,14.24
2022-10-01T14:27:35.892Z,14.53
2022-10-01T14:30:13.578Z,14.38
2022-10-01T14:33:17.765Z,14.33
2022-10-01T14:35:58.785Z,14.29
2022-10-01T14:38:28.684Z,14.00
2022-10-01T14:40:58.523Z,14.28
2022-10-01T14:43:35.659Z,14.21
2022-10-01T14:46:08.265Z,14.11
2022-10-01T14:48:40.404Z,14.42
2022-10-01T14:51:26.092Z,14.49
2022-10-01T14:53:59.105Z,14.49
2022-10-01T14:56:31.360Z,14.60
2022-10-01T14:59:07.345Z,14.68
2022-10-01T15:01:39.082Z,14.42
2022-10-01T15:04:17.278Z,14.42
2022-10-01T15:06:48.079Z,14.76
2022-10-01T15:09:20.600Z,14.77
2022-10-01T15:11:53.623Z,14.82
2022-10-01T15:14:28.277Z,14.57
2022-10-01T15:16:59.190Z,14.68
2022-10-01T15:19:29.070Z,14.69
2022-10-01T15:22:02.115Z,14.83
2022-10-01T15:24:40.644Z,14.89
2022-10-01T15:27:12.229Z,14.80
2022-10-01T15:29:46.405Z,14.75
2022-10-01T15:32:21.237Z,14.96
2022-10-01T15:34:56.512Z,15.20
2022-10-01T15:37:29.749Z,15.19
2022-10-01T15:40:02.537Z,15.26
2022-10-01T15:42:35.659Z,15.21
2022-10-01T15:45:25.856Z,15.12
2022-10-01T15:47:57.167Z,15.12
2022-10-01T15:50:32.417Z,15.08
2022-10-01T15:53:10.097Z,14.97
2022-10-01T15:55:44.838Z,14.99
2022-10-01T15:58:18.230Z,14.99
2022-10-01T16:01:03.400Z,15.12
2022-10-01T16:03:37.534Z,15.10
2022-10-01T16:06:19.933Z,15.17
2022-10-01T16:09:02.655Z,15.24
2022-10-01T16:11:36.450Z,15.28
2022-10-01T16:14:25.855Z,15.15
2022-10-01T16:17:28.110Z,15.18
2022-10-01T16:20:03.215Z,15.25
2022-10-01T16:22:34.469Z,15.16
2022-10-01T16:25:07.261Z,15.23
2022-10-01T16:27:46.754Z,15.17
2022-10-01T16:30:23.686Z,15.20
2022-10-01T16:32:56.844Z,15.17
2022-10-01T16:35:28.530Z,15.21
2022-10-01T16:37:59.980Z,15.16
2022-10-01T16:40:32.757Z,15.42
2022-10-01T16:43:03.374Z,15.26
2022-10-01T16:45:39.307Z,15.38
2022-10-01T16:48:16.613Z,15.40
2022-10-01T17:19:06.897Z,14.57
2022-10-01T17:21:37.618Z,14.51
2022-10-01T17:24:10.748Z,14.48
2022-10-01T17:26:43.288Z,14.56
2022-10-01T17:29:14.563Z,14.49
2022-10-01T17:31:53.266Z,14.60
2022-10-01T17:34:27.152Z,14.53
2022-10-01T17:36:59.862Z,14.51
2022-10-01T17:39:34.081Z,14.39
2022-10-01T17:42:04.963Z,14.46
2022-10-01T17:44:35.729Z,14.42
2022-10-01T17:47:06.946Z,14.48
2022-10-01T17:49:40.394Z,14.55
2022-10-01T17:52:11.222Z,14.57
2022-10-01T17:54:42.048Z,14.58
2022-10-01T17:57:13.885Z,14.45
2022-10-01T17:59:44.790Z,14.58
2022-10-01T18:02:39.912Z,14.51
2022-10-01T18:05:17.288Z,14.56
2022-10-01T18:07:48.077Z,14.45
2022-10-01T18:10:18.824Z,14.57
2022-10-01T18:12:49.520Z,14.50
2022-10-01T18:15:22.657Z,14.56
2022-10-01T18:18:38.141Z,14.49
2022-10-01T18:20:46.594Z,14.34
2022-10-01T18:23:17.492Z,14.14
2022-10-01T18:25:53.226Z,14.20
2022-10-01T18:28:24.746Z,13.98
2022-10-01T18:31:12.296Z,14.25
2022-10-01T18:33:47.344Z,14.00
2022-10-01T18:36:30.029Z,13.95
2022-10-01T18:39:09.325Z,13.77
2022-10-01T18:41:41.181Z,13.39
2022-10-01T18:44:15.734Z,13.62
2022-10-01T18:47:12.816Z,13.67
2022-10-01T18:50:10.777Z,13.53
2022-10-01T18:52:54.116Z,13.00
2022-10-01T18:56:05.546Z,13.30
2022-10-01T18:59:01.673Z,13.19
2022-10-01T19:01:41.567Z,12.68
2022-10-01T19:04:31.295Z,12.89
2022-10-01T19:07:15.391Z,12.59
2022-10-01T19:10:01.865Z,12.82
2022-10-01T19:12:44.210Z,12.84
2022-10-01T19:15:25.304Z,12.82
2022-10-01T19:18:06.274Z,13.00
2022-10-01T19:20:47.734Z,13.08
2022-10-01T19:23:32.957Z,13.19
2022-10-01T19:26:14.780Z,13.26
2022-10-01T19:28:56.462Z,13.20
2022-10-01T19:31:36.219Z,13.18
2022-10-01T19:34:12.962Z,13.15
2022-10-01T19:36:51.476Z,13.00
2022-10-01T19:39:25.779Z,12.70
2022-10-01T19:42:04.984Z,12.83
2022-10-01T19:44:42.913Z,12.75
2022-10-01T19:47:27.783Z,12.82
2022-10-01T19:50:06.484Z,12.64
2022-10-01T19:52:45.740Z,12.57
2022-10-01T19:55:19.666Z,12.78
2022-10-01T19:57:53.477Z,12.69
2022-10-01T20:00:26.000Z,12.76
2022-10-01T20:03:09.771Z,12.74
2022-10-01T20:05:46.899Z,12.72
2022-10-01T20:08:28.990Z,12.64
2022-10-01T20:11:05.055Z,12.54
2022-10-01T20:13:53.727Z,12.81
2022-10-01T20:16:30.017Z,12.52
2022-10-01T20:19:11.230Z,12.58
2022-10-01T20:21:53.175Z,12.62
2022-10-01T20:24:39.128Z,12.58
2022-10-01T20:27:21.204Z,12.36
2022-10-01T20:30:04.846Z,12.56
2022-10-01T20:32:39.525Z,12.50
2022-10-01T20:35:21.275Z,12.36
2022-10-01T20:38:00.948Z,12.50
2022-10-01T20:40:34.834Z,12.47
2022-10-01T20:43:08.866Z,12.48
2022-10-01T20:45:43.392Z,12.55
2022-10-01T20:48:19.460Z,12.68
2022-10-01T20:50:53.979Z,12.45
2022-10-01T20:53:35.879Z,12.44
2022-10-01T20:56:12.973Z,12.58
2022-10-01T20:58:49.175Z,12.49
2022-10-01T21:01:24.988Z,12.74
2022-10-01T21:04:00.069Z,12.75
2022-10-01T21:06:35.805Z,12.86
2022-10-01T21:09:15.179Z,12.80
2022-10-01T21:11:48.905Z,12.73
2022-10-01T21:14:24.980Z,12.73
2022-10-01T21:17:18.655Z,12.89
2022-10-01T21:20:04.715Z,12.96
2022-10-01T21:22:51.338Z,12.90
2022-10-01T21:25:27.756Z,13.39
2022-10-01T21:28:16.035Z,13.33
2022-10-01T21:31:01.990Z,13.08
2022-10-01T21:33:41.391Z,13.18
2022-10-01T21:36:19.494Z,13.08
2022-10-01T21:38:54.710Z,13.16
2022-10-01T21:41:34.685Z,13.01
2022-10-01T21:44:20.873Z,12.98
2022-10-01T21:46:58.151Z,12.99
2022-10-01T21:49:42.654Z,12.98
2022-10-01T21:52:25.774Z,12.81
2022-10-01T21:55:18.068Z,12.90
2022-10-01T21:58:08.391Z,12.82
2022-10-01T22:00:38.413Z,12.74
2022-10-01T22:03:20.206Z,12.80
2022-10-01T22:05:59.582Z,12.77
2022-10-01T22:08:50.053Z,12.66
2022-10-01T22:11:25.559Z,12.71
2022-10-01T22:14:01.502Z,12.72
2022-10-01T22:16:36.353Z,12.64
2022-10-01T22:19:12.476Z,12.74
2022-10-01T22:21:47.561Z,12.57
2022-10-01T22:24:21.399Z,12.59
2022-10-01T22:26:56.002Z,12.47
2022-10-01T22:29:29.907Z,12.59
2022-10-01T22:32:03.863Z,12.59
2022-10-01T22:34:37.832Z,12.65
2022-10-01T22:37:14.350Z,12.61
2022-10-01T22:39:50.347Z,12.48
2022-10-01T22:42:25.448Z,12.47
2022-10-01T22:44:56.095Z,12.25
2022-10-01T22:47:47.421Z,12.55
2022-10-01T22:50:32.367Z,11.74
2022-10-01T22:53:16.512Z,12.48
2022-10-01T22:55:55.452Z,12.48
2022-10-01T22:58:42.107Z,12.41
2022-10-01T23:01:25.099Z,12.47
2022-10-01T23:04:09.460Z,12.53
2022-10-01T23:06:44.938Z,12.32
2022-10-01T23:09:22.649Z,12.52
2022-10-01T23:11:59.665Z,12.49
2022-10-01T23:14:58.666Z,12.42
2022-10-01T23:17:33.863Z,12.39
2022-10-01T23:20:19.039Z,12.49
2022-10-01T23:23:05.937Z,12.51
2022-10-01T23:25:51.631Z,12.48
2022-10-01T23:28:32.162Z,12.32
2022-10-01T23:31:13.259Z,12.44
2022-10-01T23:33:56.805Z,12.35
2022-10-01T23:36:37.013Z,12.34
2022-10-01T23:39:28.315Z,12.22
2022-10-01T23:42:06.781Z,12.28
2022-10-01T23:44:42.006Z,12.42
2022-10-01T23:47:19.984Z,12.32
2022-10-01T23:49:56.028Z,12.59
2022-10-01T23:52:33.285Z,12.60
2022-10-01T23:55:19.478Z,12.81
2022-10-01T23:58:00.939Z,12.79
